createdAt,value
2019-04-11T00:02:33.076Z,3.87
2019-04-11T00:07:38.515Z,3.86
2019-04-11T00:12:43.092Z,3.85
2019-04-11T00:17:47.558Z,3.82
2019-04-11T00:22:52.643Z,3.81
2019-04-11T00:27:57.398Z,3.80
2019-04-11T00:33:02.263Z,3.78
2019-04-11T00:38:07.740Z,3.75
2019-04-11T00:43:12.378Z,3.73
2019-04-11T00:48:17.583Z,3.71
2019-04-11T00:53:22.292Z,3.68
2019-04-11T00:58:27.746Z,3.64
2019-04-11T01:03:32.431Z,3.62
2019-04-11T01:08:37.802Z,3.58
2019-04-11T01:13:50.156Z,3.53
2019-04-11T01:18:49.901Z,3.46
2019-04-11T01:23:55.441Z,3.41
2019-04-11T01:29:01.067Z,3.35
2019-04-11T01:34:06.870Z,3.29
2019-04-11T01:39:29.440Z,3.24
2019-04-11T01:44:34.274Z,3.18
2019-04-11T01:49:38.905Z,3.04
2019-04-11T01:54:43.907Z,2.93
2019-04-11T01:59:48.403Z,2.85
2019-04-11T02:04:54.691Z,2.73
2019-04-11T02:10:00.547Z,2.62
2019-04-11T02:15:08.169Z,2.50
2019-04-11T02:20:14.516Z,2.34
2019-04-11T02:25:20.804Z,2.17
2019-04-11T02:30:27.718Z,1.98
2019-04-11T02:35:32.203Z,1.98
2019-04-11T02:40:38.778Z,1.64
2019-04-11T02:45:55.375Z,1.64
2019-04-11T02:50:50.908Z,1.35
2019-04-11T02:55:58.227Z,1.35
2019-04-11T03:01:05.844Z,1.35
2019-04-11T03:06:11.136Z,1.35
2019-04-11T03:11:18.656Z,1.35
2019-04-11T03:16:35.442Z,1.35
2019-04-11T03:21:32.972Z,1.35
2019-04-11T03:26:37.998Z,1.35
2019-04-11T03:32:33.625Z,1.35
2019-04-11T03:42:17.302Z,1.35
2019-04-11T03:47:20.615Z,1.35
2019-04-11T03:52:17.060Z,1.35
2019-04-11T03:57:23.616Z,1.35
2019-04-11T04:02:30.777Z,1.35
2019-04-11T04:07:38.038Z,1.35
2019-04-11T04:12:43.978Z,1.35
2019-04-11T04:18:05.692Z,1.35
2019-04-11T04:23:14.132Z,1.35
2019-04-11T04:28:19.210Z,1.35
2019-04-11T04:33:26.643Z,-0.46
2019-04-11T04:38:33.777Z,-0.46
2019-04-11T04:43:38.840Z,-0.42
2019-04-11T04:48:45.328Z,-0.43
2019-04-11T04:53:52.013Z,-0.42
2019-04-11T04:58:58.526Z,-0.40
2019-04-11T05:04:04.567Z,-0.36
2019-04-11T05:09:10.704Z,-0.26
2019-04-11T05:14:15.368Z,-0.12
2019-04-11T05:19:19.837Z,0.00
2019-04-11T05:24:24.285Z,0.14
2019-04-11T05:29:29.226Z,0.30
2019-04-11T05:34:35.198Z,0.41
2019-04-11T05:39:40.054Z,0.53
2019-04-11T05:44:45.443Z,0.67
2019-04-11T05:49:58.985Z,0.79
2019-04-11T05:55:11.495Z,0.92
2019-04-11T06:00:15.829Z,1.11
2019-04-11T06:05:29.564Z,1.26
2019-04-11T06:10:33.801Z,1.40
2019-04-11T06:15:43.938Z,1.60
2019-04-11T06:20:49.519Z,1.71
2019-04-11T06:26:02.265Z,1.92
2019-04-11T06:31:11.694Z,2.07
2019-04-11T06:36:20.999Z,2.26
2019-04-11T06:41:36.866Z,2.50
2019-04-11T06:46:52.352Z,2.58
2019-04-11T06:52:00.451Z,2.67
2019-04-11T06:57:07.650Z,2.90
2019-04-11T07:02:18.102Z,3.00
2019-04-11T07:07:21.524Z,3.27
2019-04-11T07:12:30.786Z,3.41
2019-04-11T07:17:53.216Z,3.48
2019-04-11T07:23:15.957Z,3.53
2019-04-11T07:28:34.173Z,3.66
2019-04-11T07:33:43.166Z,3.73
2019-04-11T07:39:05.483Z,3.79
2019-04-11T07:44:19.595Z,3.92
2019-04-11T07:49:44.916Z,4.09
2019-04-11T07:54:51.415Z,4.08
2019-04-11T08:00:15.041Z,4.41
2019-04-11T08:05:30.470Z,4.62
2019-04-11T08:10:45.726Z,4.61
2019-04-11T08:16:08.429Z,4.78
2019-04-11T08:21:33.191Z,4.99
2019-04-11T08:26:55.403Z,5.30
2019-04-11T08:32:02.657Z,5.43
2019-04-11T08:37:25.369Z,5.55
2019-04-11T08:42:50.567Z,5.63
2019-04-11T08:47:58.439Z,5.64
2019-04-11T08:53:18.644Z,5.59
2019-04-11T08:58:26.652Z,5.58
2019-04-11T09:03:42.012Z,5.52
2019-04-11T09:09:04.890Z,5.60
2019-04-11T09:14:16.929Z,5.89
2019-04-11T09:19:23.091Z,6.10
2019-04-11T09:24:30.419Z,6.16
2019-04-11T09:29:52.496Z,6.41
2019-04-11T09:34:59.762Z,6.61
2019-04-11T09:40:11.939Z,6.55
2019-04-11T09:45:19.526Z,6.42
2019-04-11T09:50:44.545Z,6.21
2019-04-11T09:56:00.113Z,6.41
2019-04-11T10:01:10.230Z,6.66
2019-04-11T10:06:23.736Z,6.91
2019-04-11T10:11:35.696Z,7.10
2019-04-11T10:16:58.269Z,7.47
2019-04-11T10:22:04.865Z,7.45
2019-04-11T10:27:28.772Z,7.23
2019-04-11T10:32:43.929Z,7.15
2019-04-11T10:37:49.794Z,6.83
2019-04-11T10:42:54.450Z,6.61
2019-04-11T10:47:58.966Z,6.47
2019-04-11T10:53:13.105Z,6.53
2019-04-11T10:58:20.491Z,7.10
2019-04-11T11:03:27.944Z,7.48
2019-04-11T11:08:47.840Z,7.56
2019-04-11T11:14:00.402Z,7.28
2019-04-11T11:19:40.281Z,7.56
2019-04-11T11:24:31.900Z,7.43
2019-04-11T11:29:54.043Z,7.72
2019-04-11T11:35:01.150Z,8.10
2019-04-11T11:40:25.891Z,8.10
2019-04-11T11:45:33.208Z,8.64
2019-04-11T11:50:37.810Z,8.35
2019-04-11T11:55:45.321Z,9.81
2019-04-11T12:00:53.907Z,12.47
2019-04-11T12:06:00.953Z,13.83
2019-04-11T12:11:08.120Z,11.13
2019-04-11T12:16:19.084Z,10.21
2019-04-11T12:21:28.037Z,9.62
2019-04-11T12:26:33.972Z,9.58
2019-04-11T12:31:48.585Z,9.22
2019-04-11T12:36:54.664Z,9.12
2019-04-11T12:42:00.885Z,9.08
2019-04-11T12:47:22.853Z,9.02
2019-04-11T12:52:31.476Z,9.73
2019-04-11T12:57:46.097Z,8.95
2019-04-11T13:03:02.149Z,8.54
2019-04-11T13:08:08.346Z,8.74
2019-04-11T13:13:31.651Z,9.05
2019-04-11T13:18:37.807Z,10.48
2019-04-11T13:23:56.166Z,12.33
2019-04-11T13:29:18.640Z,12.62
2019-04-11T13:34:27.430Z,12.90
2019-04-11T13:39:32.426Z,12.91
2019-04-11T13:44:37.952Z,12.98
2019-04-11T13:49:44.200Z,13.88
2019-04-11T13:55:02.470Z,11.87
2019-04-11T14:00:25.578Z,10.78
2019-04-11T14:05:31.681Z,9.66
2019-04-11T14:10:36.308Z,8.72
2019-04-11T14:15:42.415Z,8.78
2019-04-11T14:20:55.463Z,8.14
2019-04-11T14:26:11.603Z,8.13
2019-04-11T14:31:33.839Z,8.03
2019-04-11T14:36:51.777Z,7.79
2019-04-11T14:42:14.605Z,8.30
2019-04-11T14:47:39.849Z,9.51
2019-04-11T14:52:48.745Z,9.07
2019-04-11T14:58:13.195Z,8.59
2019-04-11T15:03:22.476Z,8.33
2019-04-11T15:08:31.607Z,7.97
2019-04-11T15:13:36.161Z,7.86
2019-04-11T15:18:42.285Z,7.76
2019-04-11T15:23:47.817Z,7.48
2019-04-11T15:28:54.063Z,7.42
2019-04-11T15:34:00.174Z,7.39
2019-04-11T15:39:24.525Z,7.12
2019-04-11T15:44:36.700Z,7.06
2019-04-11T15:50:00.719Z,7.00
2019-04-11T15:55:11.618Z,6.93
2019-04-11T16:00:20.082Z,6.86
2019-04-11T16:05:45.591Z,6.61
2019-04-11T16:10:57.740Z,6.68
2019-04-11T16:16:07.191Z,6.69
2019-04-11T16:21:18.304Z,6.58
2019-04-11T16:26:22.385Z,6.51
2019-04-11T16:31:28.592Z,6.46
2019-04-11T16:36:34.747Z,6.30
2019-04-11T16:41:56.101Z,6.18
2019-04-11T16:47:18.560Z,6.03
2019-04-11T16:52:23.117Z,5.93
2019-04-11T16:57:27.703Z,5.87
2019-04-11T17:02:34.510Z,5.80
2019-04-11T17:07:57.873Z,5.75
2019-04-11T17:13:02.410Z,5.67
2019-04-11T17:18:08.560Z,5.48
2019-04-11T17:23:17.209Z,5.39
2019-04-11T17:28:23.056Z,5.27
2019-04-11T17:33:28.843Z,5.18
2019-04-11T17:38:36.940Z,5.06
2019-04-11T17:43:42.071Z,4.99
2019-04-11T17:48:46.084Z,4.91
2019-04-11T17:53:54.677Z,4.80
2019-04-11T17:58:58.139Z,4.71
2019-04-11T18:04:03.240Z,4.59
2019-04-11T18:09:11.292Z,4.52
2019-04-11T18:14:16.065Z,4.41
2019-04-11T18:19:20.643Z,4.22
2019-04-11T18:24:25.251Z,4.06
2019-04-11T18:29:29.790Z,3.99
2019-04-11T18:34:34.451Z,3.92
2019-04-11T18:39:40.094Z,3.82
2019-04-11T18:44:44.592Z,3.77
2019-04-11T18:49:53.278Z,3.71
2019-04-11T18:54:57.850Z,3.73
2019-04-11T19:00:07.123Z,3.67
2019-04-11T19:05:10.891Z,3.65
2019-04-11T19:10:16.796Z,3.64
2019-04-11T19:15:21.558Z,3.57
2019-04-11T19:20:26.164Z,3.49
2019-04-11T19:25:31.650Z,3.44
2019-04-11T19:30:36.384Z,3.39
2019-04-11T19:35:41.623Z,3.39
2019-04-11T19:40:47.998Z,3.39
2019-04-11T19:45:54.244Z,3.38
2019-04-11T19:50:59.502Z,3.38
2019-04-11T19:56:06.027Z,3.38
2019-04-11T20:01:10.652Z,3.41
2019-04-11T20:06:15.270Z,3.45
2019-04-11T20:11:20.257Z,3.49
2019-04-11T20:16:24.902Z,3.49
2019-04-11T20:21:29.531Z,3.51
2019-04-11T20:26:35.408Z,3.52
2019-04-11T20:31:39.954Z,3.54
2019-04-11T20:36:44.422Z,3.55
2019-04-11T20:41:53.156Z,3.53
2019-04-11T20:47:00.147Z,3.52
2019-04-11T20:52:02.329Z,3.50
2019-04-11T20:57:06.765Z,3.50
2019-04-11T21:02:11.274Z,3.46
2019-04-11T21:07:16.824Z,3.46
2019-04-11T21:12:22.573Z,3.46
2019-04-11T21:17:28.108Z,3.43
2019-04-11T21:22:32.559Z,3.42
2019-04-11T21:27:37.074Z,3.36
2019-04-11T21:32:41.559Z,3.34
2019-04-11T21:37:46.355Z,3.33
2019-04-11T21:42:50.885Z,3.32
2019-04-11T21:47:55.382Z,3.27
2019-04-11T21:52:59.825Z,3.26
2019-04-11T21:58:04.384Z,3.26
2019-04-11T22:03:10.312Z,3.24
2019-04-11T22:08:14.975Z,3.24
2019-04-11T22:13:19.512Z,3.18
2019-04-11T22:18:24.110Z,3.12
2019-04-11T22:23:28.584Z,3.05
2019-04-11T22:28:33.024Z,2.92
2019-04-11T22:33:39.116Z,2.81
2019-04-11T22:38:43.574Z,2.69
2019-04-11T22:43:47.994Z,2.59
2019-04-11T22:48:52.506Z,2.46
2019-04-11T22:54:00.519Z,2.27
2019-04-11T22:59:03.095Z,2.11
2019-04-11T23:04:08.117Z,1.94
2019-04-11T23:09:12.563Z,1.94
2019-04-11T23:14:17.590Z,1.80
2019-04-11T23:19:22.127Z,1.80
2019-04-11T23:24:27.133Z,1.81
2019-04-11T23:29:31.629Z,1.81
2019-04-11T23:34:36.749Z,1.79
2019-04-11T23:39:41.202Z,1.79
2019-04-11T23:44:47.928Z,1.73
2019-04-11T23:49:55.818Z,1.73
2019-04-11T23:55:01.076Z,1.66
